sensor_id;sensor_type;location;lat;lon;timestamp;P1;durP1;ratioP1;P2;durP2;ratioP2
71456;SDS011;59263;48.160;11.752;2024-01-11T00:02:09;28.40;;;10.27;;
71456;SDS011;59263;48.160;11.752;2024-01-11T00:04:34;22.60;;;8.73;;
71456;SDS011;59263;48.160;11.752;2024-01-11T00:07:00;27.87;;;9.40;;
71456;SDS011;59263;48.160;11.752;2024-01-11T00:09:25;23.97;;;7.70;;
71456;SDS011;59263;48.160;11.752;2024-01-11T00:11:50;22.57;;;8.63;;
71456;SDS011;59263;48.160;11.752;2024-01-11T00:14:15;33.20;;;10.67;;
71456;SDS011;59263;48.160;11.752;2024-01-11T00:16:41;23.53;;;8.70;;
71456;SDS011;59263;48.160;11.752;2024-01-11T00:19:06;29.50;;;9.03;;
71456;SDS011;59263;48.160;11.752;2024-01-11T00:21:31;31.10;;;10.87;;
71456;SDS011;59263;48.160;11.752;2024-01-11T00:23:56;27.03;;;8.27;;
71456;SDS011;59263;48.160;11.752;2024-01-11T00:26:22;25.30;;;8.00;;
71456;SDS011;59263;48.160;11.752;2024-01-11T00:28:47;25.77;;;8.77;;
71456;SDS011;59263;48.160;11.752;2024-01-11T00:31:12;29.77;;;9.43;;
71456;SDS011;59263;48.160;11.752;2024-01-11T00:33:37;24.03;;;7.83;;
71456;SDS011;59263;48.160;11.752;2024-01-11T00:36:03;21.97;;;7.63;;
71456;SDS011;59263;48.160;11.752;2024-01-11T00:38:28;25.17;;;8.70;;
71456;SDS011;59263;48.160;11.752;2024-01-11T00:40:53;23.50;;;8.13;;
71456;SDS011;59263;48.160;11.752;2024-01-11T00:43:19;25.58;;;7.75;;
71456;SDS011;59263;48.160;11.752;2024-01-11T00:45:45;29.38;;;7.97;;
71456;SDS011;59263;48.160;11.752;2024-01-11T00:48:11;21.85;;;7.20;;
71456;SDS011;59263;48.160;11.752;2024-01-11T00:50:36;27.65;;;7.50;;
71456;SDS011;59263;48.160;11.752;2024-01-11T00:53:01;26.23;;;8.30;;
71456;SDS011;59263;48.160;11.752;2024-01-11T00:55:28;26.97;;;8.70;;
71456;SDS011;59263;48.160;11.752;2024-01-11T00:57:53;31.70;;;9.52;;
71456;SDS011;59263;48.160;11.752;2024-01-11T01:00:18;24.73;;;8.20;;
71456;SDS011;59263;48.160;11.752;2024-01-11T01:02:43;20.40;;;8.45;;
71456;SDS011;59263;48.160;11.752;2024-01-11T01:05:08;22.88;;;6.95;;
71456;SDS011;59263;48.160;11.752;2024-01-11T01:07:34;17.33;;;5.95;;
71456;SDS011;59263;48.160;11.752;2024-01-11T01:09:59;15.35;;;6.13;;
71456;SDS011;59263;48.160;11.752;2024-01-11T01:12:24;16.77;;;5.80;;
71456;SDS011;59263;48.160;11.752;2024-01-11T01:14:53;19.50;;;5.93;;
71456;SDS011;59263;48.160;11.752;2024-01-11T01:17:19;22.03;;;8.43;;
71456;SDS011;59263;48.160;11.752;2024-01-11T01:19:44;21.30;;;7.83;;
71456;SDS011;59263;48.160;11.752;2024-01-11T01:22:09;26.53;;;7.37;;
71456;SDS011;59263;48.160;11.752;2024-01-11T01:24:34;21.07;;;6.90;;
71456;SDS011;59263;48.160;11.752;2024-01-11T01:27:00;23.83;;;7.23;;
71456;SDS011;59263;48.160;11.752;2024-01-11T01:29:25;24.38;;;7.50;;
71456;SDS011;59263;48.160;11.752;2024-01-11T01:31:50;24.90;;;8.60;;
71456;SDS011;59263;48.160;11.752;2024-01-11T01:34:16;20.80;;;7.60;;
71456;SDS011;59263;48.160;11.752;2024-01-11T01:36:41;19.77;;;7.70;;
71456;SDS011;59263;48.160;11.752;2024-01-11T01:39:06;28.57;;;8.30;;
71456;SDS011;59263;48.160;11.752;2024-01-11T01:41:32;17.83;;;7.43;;
71456;SDS011;59263;48.160;11.752;2024-01-11T01:43:57;22.90;;;8.23;;
71456;SDS011;59263;48.160;11.752;2024-01-11T01:46:23;18.53;;;7.23;;
71456;SDS011;59263;48.160;11.752;2024-01-11T01:48:49;16.53;;;6.13;;
71456;SDS011;59263;48.160;11.752;2024-01-11T01:51:14;19.35;;;6.93;;
71456;SDS011;59263;48.160;11.752;2024-01-11T01:53:39;22.90;;;6.50;;
71456;SDS011;59263;48.160;11.752;2024-01-11T01:56:05;20.30;;;6.27;;
71456;SDS011;59263;48.160;11.752;2024-01-11T01:58:31;22.02;;;7.10;;
71456;SDS011;59263;48.160;11.752;2024-01-11T02:00:56;24.50;;;8.57;;
71456;SDS011;59263;48.160;11.752;2024-01-11T02:03:22;29.80;;;8.43;;
71456;SDS011;59263;48.160;11.752;2024-01-11T02:05:48;20.60;;;7.50;;
71456;SDS011;59263;48.160;11.752;2024-01-11T02:08:15;27.67;;;9.33;;
71456;SDS011;59263;48.160;11.752;2024-01-11T02:10:40;25.35;;;8.18;;
71456;SDS011;59263;48.160;11.752;2024-01-11T02:13:06;24.65;;;8.75;;
71456;SDS011;59263;48.160;11.752;2024-01-11T02:15:31;25.03;;;9.10;;
71456;SDS011;59263;48.160;11.752;2024-01-11T02:17:57;21.07;;;8.37;;
71456;SDS011;59263;48.160;11.752;2024-01-11T02:20:22;27.77;;;7.23;;
71456;SDS011;59263;48.160;11.752;2024-01-11T02:22:49;24.30;;;7.70;;
71456;SDS011;59263;48.160;11.752;2024-01-11T02:25:15;18.25;;;6.60;;
71456;SDS011;59263;48.160;11.752;2024-01-11T02:30:12;21.38;;;8.27;;
71456;SDS011;59263;48.160;11.752;2024-01-11T02:32:37;23.77;;;6.60;;
71456;SDS011;59263;48.160;11.752;2024-01-11T02:35:03;21.67;;;5.53;;
71456;SDS011;59263;48.160;11.752;2024-01-11T02:37:29;16.95;;;5.88;;
71456;SDS011;59263;48.160;11.752;2024-01-11T02:39:54;19.40;;;7.17;;
71456;SDS011;59263;48.160;11.752;2024-01-11T02:42:19;13.93;;;5.25;;
71456;SDS011;59263;48.160;11.752;2024-01-11T02:44:45;21.77;;;6.63;;
71456;SDS011;59263;48.160;11.752;2024-01-11T02:47:10;19.80;;;6.33;;
71456;SDS011;59263;48.160;11.752;2024-01-11T02:49:35;20.40;;;6.23;;
71456;SDS011;59263;48.160;11.752;2024-01-11T02:52:00;24.87;;;8.23;;
71456;SDS011;59263;48.160;11.752;2024-01-11T02:54:26;19.20;;;5.87;;
71456;SDS011;59263;48.160;11.752;2024-01-11T02:56:51;20.07;;;6.17;;
71456;SDS011;59263;48.160;11.752;2024-01-11T02:59:16;15.00;;;5.43;;
71456;SDS011;59263;48.160;11.752;2024-01-11T03:01:41;19.93;;;7.53;;
71456;SDS011;59263;48.160;11.752;2024-01-11T03:04:06;19.40;;;5.80;;
71456;SDS011;59263;48.160;11.752;2024-01-11T03:06:32;21.00;;;6.90;;
71456;SDS011;59263;48.160;11.752;2024-01-11T03:08:57;16.60;;;6.00;;
71456;SDS011;59263;48.160;11.752;2024-01-11T03:11:22;20.53;;;6.20;;
71456;SDS011;59263;48.160;11.752;2024-01-11T03:13:48;15.60;;;5.97;;
71456;SDS011;59263;48.160;11.752;2024-01-11T03:16:13;22.27;;;5.93;;
71456;SDS011;59263;48.160;11.752;2024-01-11T03:18:38;14.47;;;5.63;;
71456;SDS011;59263;48.160;11.752;2024-01-11T03:21:04;14.45;;;6.40;;
71456;SDS011;59263;48.160;11.752;2024-01-11T03:23:29;12.93;;;4.07;;
71456;SDS011;59263;48.160;11.752;2024-01-11T03:25:55;19.27;;;5.50;;
71456;SDS011;59263;48.160;11.752;2024-01-11T03:28:20;13.23;;;5.00;;
71456;SDS011;59263;48.160;11.752;2024-01-11T03:30:45;13.77;;;4.87;;
71456;SDS011;59263;48.160;11.752;2024-01-11T03:33:10;16.53;;;6.77;;
71456;SDS011;59263;48.160;11.752;2024-01-11T03:35:36;15.97;;;4.90;;
71456;SDS011;59263;48.160;11.752;2024-01-11T03:38:03;16.52;;;4.82;;
71456;SDS011;59263;48.160;11.752;2024-01-11T03:40:28;15.17;;;5.27;;
71456;SDS011;59263;48.160;11.752;2024-01-11T03:42:54;13.67;;;4.90;;
71456;SDS011;59263;48.160;11.752;2024-01-11T03:45:19;14.80;;;4.90;;
71456;SDS011;59263;48.160;11.752;2024-01-11T03:47:44;14.60;;;5.40;;
71456;SDS011;59263;48.160;11.752;2024-01-11T03:50:09;13.77;;;4.67;;
71456;SDS011;59263;48.160;11.752;2024-01-11T03:52:35;13.37;;;5.37;;
71456;SDS011;59263;48.160;11.752;2024-01-11T03:55:00;16.03;;;6.30;;
71456;SDS011;59263;48.160;11.752;2024-01-11T03:57:25;18.63;;;6.37;;
71456;SDS011;59263;48.160;11.752;2024-01-11T03:59:50;14.57;;;5.70;;
71456;SDS011;59263;48.160;11.752;2024-01-11T04:02:16;14.63;;;4.73;;
71456;SDS011;59263;48.160;11.752;2024-01-11T04:04:41;22.63;;;6.10;;
71456;SDS011;59263;48.160;11.752;2024-01-11T04:07:06;12.17;;;4.27;;
71456;SDS011;59263;48.160;11.752;2024-01-11T04:09:32;15.33;;;4.70;;
71456;SDS011;59263;48.160;11.752;2024-01-11T04:11:57;19.83;;;5.63;;
71456;SDS011;59263;48.160;11.752;2024-01-11T04:14:22;14.13;;;5.90;;
71456;SDS011;59263;48.160;11.752;2024-01-11T04:16:47;16.30;;;4.83;;
71456;SDS011;59263;48.160;11.752;2024-01-11T04:19:13;11.50;;;3.97;;
71456;SDS011;59263;48.160;11.752;2024-01-11T04:21:38;18.93;;;5.77;;
71456;SDS011;59263;48.160;11.752;2024-01-11T04:24:04;13.73;;;4.95;;
71456;SDS011;59263;48.160;11.752;2024-01-11T04:26:29;21.23;;;6.67;;
71456;SDS011;59263;48.160;11.752;2024-01-11T04:28:54;16.10;;;5.57;;
71456;SDS011;59263;48.160;11.752;2024-01-11T04:31:20;19.73;;;4.80;;
71456;SDS011;59263;48.160;11.752;2024-01-11T04:33:46;19.10;;;5.73;;
71456;SDS011;59263;48.160;11.752;2024-01-11T04:36:11;13.13;;;4.23;;
71456;SDS011;59263;48.160;11.752;2024-01-11T04:38:37;19.63;;;6.03;;
71456;SDS011;59263;48.160;11.752;2024-01-11T04:41:02;11.20;;;4.30;;
71456;SDS011;59263;48.160;11.752;2024-01-11T04:43:28;18.40;;;5.73;;
71456;SDS011;59263;48.160;11.752;2024-01-11T04:45:53;16.93;;;5.77;;
71456;SDS011;59263;48.160;11.752;2024-01-11T04:48:18;21.37;;;7.20;;
71456;SDS011;59263;48.160;11.752;2024-01-11T04:50:44;10.47;;;4.57;;
71456;SDS011;59263;48.160;11.752;2024-01-11T04:53:09;20.08;;;6.05;;
71456;SDS011;59263;48.160;11.752;2024-01-11T04:55:34;12.43;;;4.20;;
71456;SDS011;59263;48.160;11.752;2024-01-11T04:58:00;14.87;;;4.93;;
71456;SDS011;59263;48.160;11.752;2024-01-11T05:00:25;11.87;;;4.77;;
71456;SDS011;59263;48.160;11.752;2024-01-11T05:02:50;14.57;;;4.30;;
71456;SDS011;59263;48.160;11.752;2024-01-11T05:05:15;16.00;;;4.83;;
71456;SDS011;59263;48.160;11.752;2024-01-11T05:07:41;15.20;;;5.90;;
71456;SDS011;59263;48.160;11.752;2024-01-11T05:10:06;17.23;;;5.17;;
71456;SDS011;59263;48.160;11.752;2024-01-11T05:12:31;14.07;;;4.00;;
71456;SDS011;59263;48.160;11.752;2024-01-11T05:14:57;17.67;;;5.20;;
71456;SDS011;59263;48.160;11.752;2024-01-11T05:17:22;13.27;;;4.77;;
71456;SDS011;59263;48.160;11.752;2024-01-11T05:19:47;16.47;;;5.67;;
71456;SDS011;59263;48.160;11.752;2024-01-11T05:22:12;16.38;;;5.07;;
71456;SDS011;59263;48.160;11.752;2024-01-11T05:24:38;16.40;;;5.00;;
71456;SDS011;59263;48.160;11.752;2024-01-11T05:27:03;17.03;;;6.17;;
71456;SDS011;59263;48.160;11.752;2024-01-11T05:29:28;18.80;;;6.27;;
71456;SDS011;59263;48.160;11.752;2024-01-11T05:31:54;13.20;;;4.47;;
71456;SDS011;59263;48.160;11.752;2024-01-11T05:34:19;13.03;;;5.03;;
71456;SDS011;59263;48.160;11.752;2024-01-11T05:36:44;13.50;;;5.10;;
71456;SDS011;59263;48.160;11.752;2024-01-11T05:39:10;16.60;;;4.77;;
71456;SDS011;59263;48.160;11.752;2024-01-11T05:41:35;12.63;;;4.53;;
71456;SDS011;59263;48.160;11.752;2024-01-11T05:44:00;17.60;;;4.90;;
71456;SDS011;59263;48.160;11.752;2024-01-11T05:46:26;11.50;;;4.20;;
71456;SDS011;59263;48.160;11.752;2024-01-11T05:48:51;16.47;;;5.40;;
71456;SDS011;59263;48.160;11.752;2024-01-11T05:51:16;16.93;;;4.83;;
71456;SDS011;59263;48.160;11.752;2024-01-11T05:53:41;12.27;;;4.67;;
71456;SDS011;59263;48.160;11.752;2024-01-11T05:56:07;9.90;;;4.27;;
71456;SDS011;59263;48.160;11.752;2024-01-11T05:58:32;18.93;;;6.77;;
71456;SDS011;59263;48.160;11.752;2024-01-11T06:00:57;12.40;;;3.80;;
71456;SDS011;59263;48.160;11.752;2024-01-11T06:03:23;19.33;;;5.67;;
71456;SDS011;59263;48.160;11.752;2024-01-11T06:05:48;20.43;;;5.77;;
71456;SDS011;59263;48.160;11.752;2024-01-11T06:08:13;21.03;;;6.23;;
71456;SDS011;59263;48.160;11.752;2024-01-11T06:10:39;14.90;;;5.13;;
71456;SDS011;59263;48.160;11.752;2024-01-11T06:13:04;12.80;;;4.70;;
71456;SDS011;59263;48.160;11.752;2024-01-11T06:15:29;16.20;;;6.13;;
71456;SDS011;59263;48.160;11.752;2024-01-11T06:17:54;19.17;;;4.87;;
71456;SDS011;59263;48.160;11.752;2024-01-11T06:20:19;15.50;;;4.70;;
71456;SDS011;59263;48.160;11.752;2024-01-11T06:22:45;21.38;;;6.28;;
71456;SDS011;59263;48.160;11.752;2024-01-11T06:25:11;18.67;;;5.77;;
71456;SDS011;59263;48.160;11.752;2024-01-11T06:27:36;14.70;;;5.10;;
71456;SDS011;59263;48.160;11.752;2024-01-11T06:30:01;14.80;;;5.07;;
71456;SDS011;59263;48.160;11.752;2024-01-11T06:32:26;17.27;;;5.67;;
71456;SDS011;59263;48.160;11.752;2024-01-11T06:34:52;13.73;;;4.57;;
71456;SDS011;59263;48.160;11.752;2024-01-11T06:37:17;18.30;;;5.60;;
71456;SDS011;59263;48.160;11.752;2024-01-11T06:39:42;15.40;;;5.77;;
71456;SDS011;59263;48.160;11.752;2024-01-11T06:42:07;16.93;;;5.70;;
71456;SDS011;59263;48.160;11.752;2024-01-11T06:44:33;18.13;;;5.63;;
71456;SDS011;59263;48.160;11.752;2024-01-11T06:46:58;15.37;;;4.67;;
71456;SDS011;59263;48.160;11.752;2024-01-11T06:49:23;15.50;;;5.57;;
71456;SDS011;59263;48.160;11.752;2024-01-11T06:51:48;15.60;;;5.90;;
71456;SDS011;59263;48.160;11.752;2024-01-11T06:54:14;12.52;;;4.15;;
71456;SDS011;59263;48.160;11.752;2024-01-11T06:56:39;18.85;;;6.50;;
71456;SDS011;59263;48.160;11.752;2024-01-11T06:59:04;15.65;;;5.78;;
71456;SDS011;59263;48.160;11.752;2024-01-11T07:01:29;16.70;;;5.73;;
71456;SDS011;59263;48.160;11.752;2024-01-11T07:03:55;13.60;;;5.27;;
71456;SDS011;59263;48.160;11.752;2024-01-11T07:06:20;16.50;;;6.13;;
71456;SDS011;59263;48.160;11.752;2024-01-11T07:08:45;11.83;;;3.77;;
71456;SDS011;59263;48.160;11.752;2024-01-11T07:11:11;17.60;;;4.40;;
71456;SDS011;59263;48.160;11.752;2024-01-11T07:13:36;15.87;;;5.97;;
71456;SDS011;59263;48.160;11.752;2024-01-11T07:16:01;24.47;;;5.63;;
71456;SDS011;59263;48.160;11.752;2024-01-11T07:18:28;17.95;;;5.53;;
71456;SDS011;59263;48.160;11.752;2024-01-11T07:20:58;17.92;;;5.90;;
71456;SDS011;59263;48.160;11.752;2024-01-11T07:23:24;13.63;;;4.50;;
71456;SDS011;59263;48.160;11.752;2024-01-11T07:25:49;14.48;;;5.35;;
71456;SDS011;59263;48.160;11.752;2024-01-11T07:28:14;17.42;;;5.47;;
71456;SDS011;59263;48.160;11.752;2024-01-11T07:30:40;16.33;;;6.30;;
71456;SDS011;59263;48.160;11.752;2024-01-11T07:33:05;17.30;;;5.40;;
71456;SDS011;59263;48.160;11.752;2024-01-11T07:35:31;14.30;;;5.53;;
71456;SDS011;59263;48.160;11.752;2024-01-11T07:37:56;19.70;;;6.40;;
71456;SDS011;59263;48.160;11.752;2024-01-11T07:40:22;14.77;;;5.10;;
71456;SDS011;59263;48.160;11.752;2024-01-11T07:42:47;12.73;;;5.50;;
71456;SDS011;59263;48.160;11.752;2024-01-11T07:45:13;18.87;;;6.50;;
71456;SDS011;59263;48.160;11.752;2024-01-11T07:47:39;19.00;;;5.85;;
71456;SDS011;59263;48.160;11.752;2024-01-11T07:50:05;27.77;;;5.82;;
71456;SDS011;59263;48.160;11.752;2024-01-11T07:52:31;14.18;;;6.03;;
71456;SDS011;59263;48.160;11.752;2024-01-11T07:54:57;16.83;;;5.43;;
71456;SDS011;59263;48.160;11.752;2024-01-11T07:57:25;14.73;;;4.75;;
71456;SDS011;59263;48.160;11.752;2024-01-11T07:59:50;18.80;;;5.73;;
71456;SDS011;59263;48.160;11.752;2024-01-11T08:02:15;15.97;;;5.57;;
71456;SDS011;59263;48.160;11.752;2024-01-11T08:04:41;13.80;;;4.57;;
71456;SDS011;59263;48.160;11.752;2024-01-11T08:07:06;14.23;;;5.40;;
71456;SDS011;59263;48.160;11.752;2024-01-11T08:09:31;11.43;;;4.67;;
71456;SDS011;59263;48.160;11.752;2024-01-11T08:11:56;15.33;;;5.00;;
71456;SDS011;59263;48.160;11.752;2024-01-11T08:14:22;19.37;;;6.53;;
71456;SDS011;59263;48.160;11.752;2024-01-11T08:16:47;16.53;;;5.97;;
71456;SDS011;59263;48.160;11.752;2024-01-11T08:19:12;18.30;;;6.10;;
71456;SDS011;59263;48.160;11.752;2024-01-11T08:21:41;16.50;;;5.00;;
71456;SDS011;59263;48.160;11.752;2024-01-11T08:24:07;13.25;;;4.80;;
71456;SDS011;59263;48.160;11.752;2024-01-11T08:26:32;16.65;;;6.63;;
71456;SDS011;59263;48.160;11.752;2024-01-11T08:28:57;18.35;;;5.43;;
71456;SDS011;59263;48.160;11.752;2024-01-11T08:31:23;17.43;;;6.53;;
71456;SDS011;59263;48.160;11.752;2024-01-11T08:33:48;15.57;;;6.23;;
71456;SDS011;59263;48.160;11.752;2024-01-11T08:36:13;13.27;;;5.40;;
71456;SDS011;59263;48.160;11.752;2024-01-11T08:38:39;17.80;;;6.70;;
71456;SDS011;59263;48.160;11.752;2024-01-11T08:41:04;17.43;;;5.50;;
71456;SDS011;59263;48.160;11.752;2024-01-11T08:43:29;16.07;;;5.73;;
71456;SDS011;59263;48.160;11.752;2024-01-11T08:45:54;17.53;;;5.07;;
71456;SDS011;59263;48.160;11.752;2024-01-11T08:48:20;16.93;;;5.83;;
71456;SDS011;59263;48.160;11.752;2024-01-11T08:50:46;17.30;;;7.65;;
71456;SDS011;59263;48.160;11.752;2024-01-11T08:53:11;20.50;;;6.80;;
71456;SDS011;59263;48.160;11.752;2024-01-11T08:55:36;17.70;;;6.90;;
71456;SDS011;59263;48.160;11.752;2024-01-11T08:58:01;18.93;;;5.90;;
71456;SDS011;59263;48.160;11.752;2024-01-11T09:00:26;21.77;;;5.70;;
71456;SDS011;59263;48.160;11.752;2024-01-11T09:02:52;19.27;;;6.13;;
71456;SDS011;59263;48.160;11.752;2024-01-11T09:05:17;22.87;;;8.73;;
71456;SDS011;59263;48.160;11.752;2024-01-11T09:07:42;16.33;;;6.20;;
71456;SDS011;59263;48.160;11.752;2024-01-11T09:10:08;20.93;;;7.80;;
71456;SDS011;59263;48.160;11.752;2024-01-11T09:12:37;27.02;;;8.95;;
71456;SDS011;59263;48.160;11.752;2024-01-11T09:15:02;25.37;;;7.77;;
71456;SDS011;59263;48.160;11.752;2024-01-11T09:17:28;23.00;;;7.80;;
71456;SDS011;59263;48.160;11.752;2024-01-11T09:19:53;32.00;;;11.10;;
71456;SDS011;59263;48.160;11.752;2024-01-11T09:22:18;24.60;;;9.23;;
71456;SDS011;59263;48.160;11.752;2024-01-11T09:24:44;24.48;;;8.57;;
71456;SDS011;59263;48.160;11.752;2024-01-11T09:27:09;24.60;;;8.90;;
71456;SDS011;59263;48.160;11.752;2024-01-11T09:29:34;30.17;;;11.77;;
71456;SDS011;59263;48.160;11.752;2024-01-11T09:32:00;29.93;;;10.20;;
71456;SDS011;59263;48.160;11.752;2024-01-11T09:34:25;27.17;;;9.93;;
71456;SDS011;59263;48.160;11.752;2024-01-11T09:36:51;24.87;;;8.93;;
71456;SDS011;59263;48.160;11.752;2024-01-11T09:39:17;24.45;;;8.88;;
71456;SDS011;59263;48.160;11.752;2024-01-11T09:41:42;26.80;;;10.53;;
71456;SDS011;59263;48.160;11.752;2024-01-11T09:44:11;30.38;;;11.40;;
71456;SDS011;59263;48.160;11.752;2024-01-11T09:46:37;19.83;;;9.97;;
71456;SDS011;59263;48.160;11.752;2024-01-11T09:49:02;24.23;;;9.40;;
71456;SDS011;59263;48.160;11.752;2024-01-11T09:51:30;28.98;;;10.65;;
71456;SDS011;59263;48.160;11.752;2024-01-11T09:53:57;25.02;;;9.57;;
71456;SDS011;59263;48.160;11.752;2024-01-11T09:56:23;27.10;;;10.07;;
71456;SDS011;59263;48.160;11.752;2024-01-11T09:58:49;25.35;;;10.18;;
71456;SDS011;59263;48.160;11.752;2024-01-11T10:01:15;31.75;;;9.10;;
71456;SDS011;59263;48.160;11.752;2024-01-11T10:03:40;35.73;;;11.90;;
71456;SDS011;59263;48.160;11.752;2024-01-11T10:06:08;26.38;;;10.82;;
71456;SDS011;59263;48.160;11.752;2024-01-11T10:08:34;30.80;;;10.47;;
71456;SDS011;59263;48.160;11.752;2024-01-11T10:11:04;31.15;;;10.05;;
71456;SDS011;59263;48.160;11.752;2024-01-11T10:13:30;30.88;;;11.38;;
71456;SDS011;59263;48.160;11.752;2024-01-11T10:16:04;27.20;;;10.73;;
71456;SDS011;59263;48.160;11.752;2024-01-11T10:18:29;28.47;;;9.40;;
71456;SDS011;59263;48.160;11.752;2024-01-11T10:20:55;27.60;;;10.55;;
71456;SDS011;59263;48.160;11.752;2024-01-11T10:23:21;24.05;;;9.88;;
71456;SDS011;59263;48.160;11.752;2024-01-11T10:25:47;26.43;;;10.03;;
71456;SDS011;59263;48.160;11.752;2024-01-11T10:28:12;24.30;;;8.03;;
71456;SDS011;59263;48.160;11.752;2024-01-11T10:30:38;28.17;;;9.27;;
71456;SDS011;59263;48.160;11.752;2024-01-11T10:33:04;28.38;;;10.32;;
71456;SDS011;59263;48.160;11.752;2024-01-11T10:35:31;23.88;;;8.35;;
71456;SDS011;59263;48.160;11.752;2024-01-11T10:37:57;23.50;;;8.10;;
71456;SDS011;59263;48.160;11.752;2024-01-11T10:40:23;19.90;;;7.20;;
71456;SDS011;59263;48.160;11.752;2024-01-11T10:42:51;29.10;;;8.80;;
71456;SDS011;59263;48.160;11.752;2024-01-11T10:45:18;21.75;;;8.75;;
71456;SDS011;59263;48.160;11.752;2024-01-11T10:47:56;21.00;;;7.28;;
71456;SDS011;59263;48.160;11.752;2024-01-11T10:50:24;19.90;;;6.93;;
71456;SDS011;59263;48.160;11.752;2024-01-11T10:53:03;19.93;;;8.47;;
71456;SDS011;59263;48.160;11.752;2024-01-11T10:55:30;26.38;;;8.27;;
71456;SDS011;59263;48.160;11.752;2024-01-11T10:57:56;25.27;;;7.30;;
71456;SDS011;59263;48.160;11.752;2024-01-11T11:00:23;28.50;;;9.18;;
71456;SDS011;59263;48.160;11.752;2024-01-11T11:02:49;21.87;;;7.47;;
71456;SDS011;59263;48.160;11.752;2024-01-11T11:05:15;18.95;;;6.20;;
71456;SDS011;59263;48.160;11.752;2024-01-11T11:07:41;21.25;;;7.28;;
71456;SDS011;59263;48.160;11.752;2024-01-11T11:10:07;21.70;;;8.83;;
71456;SDS011;59263;48.160;11.752;2024-01-11T11:12:33;23.80;;;8.73;;
71456;SDS011;59263;48.160;11.752;2024-01-11T11:15:01;17.92;;;6.45;;
71456;SDS011;59263;48.160;11.752;2024-01-11T11:17:27;21.30;;;7.10;;
71456;SDS011;59263;48.160;11.752;2024-01-11T11:19:54;29.23;;;9.03;;
71456;SDS011;59263;48.160;11.752;2024-01-11T11:22:19;22.83;;;9.20;;
71456;SDS011;59263;48.160;11.752;2024-01-11T11:24:45;18.20;;;7.38;;
71456;SDS011;59263;48.160;11.752;2024-01-11T11:27:13;22.17;;;7.90;;
71456;SDS011;59263;48.160;11.752;2024-01-11T11:29:38;22.25;;;7.43;;
71456;SDS011;59263;48.160;11.752;2024-01-11T11:32:03;26.90;;;7.33;;
71456;SDS011;59263;48.160;11.752;2024-01-11T11:34:42;37.13;;;9.63;;
71456;SDS011;59263;48.160;11.752;2024-01-11T11:37:09;32.93;;;10.23;;
71456;SDS011;59263;48.160;11.752;2024-01-11T11:39:35;26.65;;;7.95;;
71456;SDS011;59263;48.160;11.752;2024-01-11T11:42:00;22.43;;;8.23;;
71456;SDS011;59263;48.160;11.752;2024-01-11T11:44:26;19.40;;;8.45;;
71456;SDS011;59263;48.160;11.752;2024-01-11T11:46:51;28.87;;;8.90;;
71456;SDS011;59263;48.160;11.752;2024-01-11T11:49:16;23.13;;;8.50;;
71456;SDS011;59263;48.160;11.752;2024-01-11T11:51:42;25.23;;;9.30;;
71456;SDS011;59263;48.160;11.752;2024-01-11T11:54:08;30.70;;;9.55;;
71456;SDS011;59263;48.160;11.752;2024-01-11T11:56:34;23.92;;;9.63;;
71456;SDS011;59263;48.160;11.752;2024-01-11T11:59:00;26.57;;;8.57;;
71456;SDS011;59263;48.160;11.752;2024-01-11T12:01:27;29.95;;;9.35;;
71456;SDS011;59263;48.160;11.752;2024-01-11T12:03:53;30.27;;;9.13;;
71456;SDS011;59263;48.160;11.752;2024-01-11T12:06:19;22.53;;;8.37;;
71456;SDS011;59263;48.160;11.752;2024-01-11T12:08:45;34.03;;;10.13;;
71456;SDS011;59263;48.160;11.752;2024-01-11T12:11:14;34.47;;;11.10;;
71456;SDS011;59263;48.160;11.752;2024-01-11T12:13:40;26.80;;;9.30;;
71456;SDS011;59263;48.160;11.752;2024-01-11T12:16:05;27.30;;;9.67;;
71456;SDS011;59263;48.160;11.752;2024-01-11T12:18:31;33.70;;;11.40;;
71456;SDS011;59263;48.160;11.752;2024-01-11T12:20:56;23.27;;;8.43;;
71456;SDS011;59263;48.160;11.752;2024-01-11T12:23:21;26.83;;;9.67;;
71456;SDS011;59263;48.160;11.752;2024-01-11T12:25:47;30.40;;;9.13;;
71456;SDS011;59263;48.160;11.752;2024-01-11T12:28:12;31.10;;;11.10;;
71456;SDS011;59263;48.160;11.752;2024-01-11T12:30:37;28.67;;;7.83;;
71456;SDS011;59263;48.160;11.752;2024-01-11T12:33:03;28.13;;;10.20;;
71456;SDS011;59263;48.160;11.752;2024-01-11T12:35:28;28.10;;;9.53;;
71456;SDS011;59263;48.160;11.752;2024-01-11T12:38:03;28.40;;;9.65;;
71456;SDS011;59263;48.160;11.752;2024-01-11T12:40:32;21.77;;;7.30;;
71456;SDS011;59263;48.160;11.752;2024-01-11T12:42:57;24.23;;;9.02;;
71456;SDS011;59263;48.160;11.752;2024-01-11T12:45:24;27.20;;;8.70;;
71456;SDS011;59263;48.160;11.752;2024-01-11T12:47:51;23.40;;;8.00;;
71456;SDS011;59263;48.160;11.752;2024-01-11T12:50:16;33.83;;;10.82;;
71456;SDS011;59263;48.160;11.752;2024-01-11T12:52:42;35.43;;;12.60;;
71456;SDS011;59263;48.160;11.752;2024-01-11T12:55:07;35.20;;;11.77;;
71456;SDS011;59263;48.160;11.752;2024-01-11T12:57:36;34.90;;;11.43;;
71456;SDS011;59263;48.160;11.752;2024-01-11T13:00:13;22.17;;;9.03;;
71456;SDS011;59263;48.160;11.752;2024-01-11T13:02:39;27.70;;;10.75;;
71456;SDS011;59263;48.160;11.752;2024-01-11T13:05:04;28.40;;;10.73;;
71456;SDS011;59263;48.160;11.752;2024-01-11T13:07:32;32.95;;;10.70;;
71456;SDS011;59263;48.160;11.752;2024-01-11T13:09:58;28.77;;;10.38;;
71456;SDS011;59263;48.160;11.752;2024-01-11T13:12:24;31.70;;;12.23;;
71456;SDS011;59263;48.160;11.752;2024-01-11T13:14:49;30.30;;;11.97;;
71456;SDS011;59263;48.160;11.752;2024-01-11T13:17:15;28.48;;;9.77;;
71456;SDS011;59263;48.160;11.752;2024-01-11T13:19:41;28.33;;;9.57;;
71456;SDS011;59263;48.160;11.752;2024-01-11T13:22:06;35.63;;;11.50;;
71456;SDS011;59263;48.160;11.752;2024-01-11T13:24:31;31.90;;;10.70;;
71456;SDS011;59263;48.160;11.752;2024-01-11T13:26:57;32.23;;;11.20;;
71456;SDS011;59263;48.160;11.752;2024-01-11T13:29:22;34.77;;;10.70;;
71456;SDS011;59263;48.160;11.752;2024-01-11T13:31:47;33.50;;;11.87;;
71456;SDS011;59263;48.160;11.752;2024-01-11T13:34:12;31.13;;;11.03;;
71456;SDS011;59263;48.160;11.752;2024-01-11T13:36:37;38.77;;;10.87;;
71456;SDS011;59263;48.160;11.752;2024-01-11T13:39:03;37.70;;;11.33;;
71456;SDS011;59263;48.160;11.752;2024-01-11T13:41:28;25.90;;;10.27;;
71456;SDS011;59263;48.160;11.752;2024-01-11T13:43:53;31.77;;;10.13;;
71456;SDS011;59263;48.160;11.752;2024-01-11T13:46:19;32.28;;;9.70;;
71456;SDS011;59263;48.160;11.752;2024-01-11T13:48:45;37.17;;;10.83;;
71456;SDS011;59263;48.160;11.752;2024-01-11T13:51:10;33.60;;;11.20;;
71456;SDS011;59263;48.160;11.752;2024-01-11T13:53:38;37.13;;;11.90;;
71456;SDS011;59263;48.160;11.752;2024-01-11T13:56:03;29.17;;;12.03;;
71456;SDS011;59263;48.160;11.752;2024-01-11T13:58:28;45.45;;;13.30;;
71456;SDS011;59263;48.160;11.752;2024-01-11T14:00:54;34.03;;;11.43;;
71456;SDS011;59263;48.160;11.752;2024-01-11T14:03:19;29.90;;;11.50;;
71456;SDS011;59263;48.160;11.752;2024-01-11T14:05:45;35.60;;;12.13;;
71456;SDS011;59263;48.160;11.752;2024-01-11T14:08:10;27.97;;;10.50;;
71456;SDS011;59263;48.160;11.752;2024-01-11T14:10:35;45.17;;;12.53;;
71456;SDS011;59263;48.160;11.752;2024-01-11T14:13:01;29.77;;;9.90;;